sensor_id;sensor_type;location;lat;lon;timestamp;pressure;altitude;pressure_sealevel;temperature;humidity
13869;BME280;7004;48.206;16.402;2023-03-12T00:01:45;99398.94;;;2.64;53.94
13869;BME280;7004;48.206;16.402;2023-03-12T00:04:11;99404.78;;;2.96;52.61
13869;BME280;7004;48.206;16.402;2023-03-12T00:06:38;99410.28;;;2.88;53.95
13869;BME280;7004;48.206;16.402;2023-03-12T00:09:05;99414.22;;;2.75;54.57
13869;BME280;7004;48.206;16.402;2023-03-12T00:11:31;99423.09;;;2.71;53.72
13869;BME280;7004;48.206;16.402;2023-03-12T00:13:58;99423.66;;;2.79;53.70
13869;BME280;7004;48.206;16.402;2023-03-12T00:16:26;99429.81;;;3.01;53.14
13869;BME280;7004;48.206;16.402;2023-03-12T00:18:54;99428.34;;;3.16;52.44
13869;BME280;7004;48.206;16.402;2023-03-12T00:21:21;99433.25;;;3.02;53.41
13869;BME280;7004;48.206;16.402;2023-03-12T00:23:48;99430.19;;;3.14;52.32
13869;BME280;7004;48.206;16.402;2023-03-12T00:26:15;99435.31;;;2.94;52.12
13869;BME280;7004;48.206;16.402;2023-03-12T00:28:41;99435.91;;;2.77;53.14
13869;BME280;7004;48.206;16.402;2023-03-12T00:31:20;99429.13;;;2.96;52.98
13869;BME280;7004;48.206;16.402;2023-03-12T00:33:47;99436.53;;;2.83;52.15
13869;BME280;7004;48.206;16.402;2023-03-12T00:36:19;99437.72;;;2.75;53.24
13869;BME280;7004;48.206;16.402;2023-03-12T00:38:46;99442.53;;;2.37;54.03
13869;BME280;7004;48.206;16.402;2023-03-12T00:41:12;99440.78;;;2.37;53.94
13869;BME280;7004;48.206;16.402;2023-03-12T00:43:38;99439.97;;;2.35;53.92
13869;BME280;7004;48.206;16.402;2023-03-12T00:46:04;99435.41;;;2.42;54.07
13869;BME280;7004;48.206;16.402;2023-03-12T00:48:31;99441.94;;;2.54;53.26
13869;BME280;7004;48.206;16.402;2023-03-12T00:50:57;99444.72;;;2.49;53.90
13869;BME280;7004;48.206;16.402;2023-03-12T00:53:23;99445.19;;;2.35;55.32
13869;BME280;7004;48.206;16.402;2023-03-12T00:55:49;99449.13;;;2.22;55.82
13869;BME280;7004;48.206;16.402;2023-03-12T00:58:15;99448.72;;;2.34;55.09
13869;BME280;7004;48.206;16.402;2023-03-12T01:00:41;99446.84;;;2.38;55.62
13869;BME280;7004;48.206;16.402;2023-03-12T01:03:07;99454.22;;;2.00;56.61
13869;BME280;7004;48.206;16.402;2023-03-12T01:05:33;99449.53;;;2.36;56.49
13869;BME280;7004;48.206;16.402;2023-03-12T01:08:07;99441.75;;;2.60;55.57
13869;BME280;7004;48.206;16.402;2023-03-12T01:10:34;99453.63;;;2.17;57.48
13869;BME280;7004;48.206;16.402;2023-03-12T01:13:01;99460.84;;;2.35;57.36
13869;BME280;7004;48.206;16.402;2023-03-12T01:15:28;99457.72;;;2.51;56.91
13869;BME280;7004;48.206;16.402;2023-03-12T01:17:54;99456.31;;;2.40;57.03
13869;BME280;7004;48.206;16.402;2023-03-12T01:20:21;99451.00;;;2.44;56.90
13869;BME280;7004;48.206;16.402;2023-03-12T01:22:48;99453.41;;;2.50;56.91
13869;BME280;7004;48.206;16.402;2023-03-12T01:25:14;99457.88;;;2.21;57.09
13869;BME280;7004;48.206;16.402;2023-03-12T01:27:40;99453.66;;;2.42;56.36
13869;BME280;7004;48.206;16.402;2023-03-12T01:30:07;99454.31;;;2.24;57.87
13869;BME280;7004;48.206;16.402;2023-03-12T01:32:34;99463.03;;;2.48;56.79
13869;BME280;7004;48.206;16.402;2023-03-12T01:35:00;99472.59;;;2.22;57.04
13869;BME280;7004;48.206;16.402;2023-03-12T01:37:27;99477.16;;;2.42;56.88
13869;BME280;7004;48.206;16.402;2023-03-12T01:39:53;99479.22;;;2.32;57.44
13869;BME280;7004;48.206;16.402;2023-03-12T01:42:20;99491.81;;;2.19;57.58
13869;BME280;7004;48.206;16.402;2023-03-12T01:47:21;99485.34;;;2.31;57.40
13869;BME280;7004;48.206;16.402;2023-03-12T01:49:49;99488.09;;;2.00;57.93
13869;BME280;7004;48.206;16.402;2023-03-12T01:52:23;99487.03;;;2.32;57.28
13869;BME280;7004;48.206;16.402;2023-03-12T01:55:12;99474.97;;;2.28;58.02
13869;BME280;7004;48.206;16.402;2023-03-12T01:57:47;99472.69;;;2.19;57.35
13869;BME280;7004;48.206;16.402;2023-03-12T02:00:23;99477.06;;;2.18;57.97
13869;BME280;7004;48.206;16.402;2023-03-12T02:02:52;99465.88;;;2.15;57.69
13869;BME280;7004;48.206;16.402;2023-03-12T02:05:33;99452.28;;;2.32;57.16
13869;BME280;7004;48.206;16.402;2023-03-12T02:08:04;99459.59;;;2.47;56.13
13869;BME280;7004;48.206;16.402;2023-03-12T02:10:37;99457.78;;;1.98;57.92
13869;BME280;7004;48.206;16.402;2023-03-12T02:13:05;99466.66;;;2.44;56.64
13869;BME280;7004;48.206;16.402;2023-03-12T02:15:35;99474.75;;;2.09;57.92
13869;BME280;7004;48.206;16.402;2023-03-12T02:18:04;99468.91;;;2.28;57.34
13869;BME280;7004;48.206;16.402;2023-03-12T02:21:13;99475.06;;;2.27;58.22
13869;BME280;7004;48.206;16.402;2023-03-12T02:24:05;99482.06;;;2.25;57.74
13869;BME280;7004;48.206;16.402;2023-03-12T02:26:31;99476.81;;;2.00;58.75
13869;BME280;7004;48.206;16.402;2023-03-12T02:29:00;99485.59;;;2.24;58.04
13869;BME280;7004;48.206;16.402;2023-03-12T02:31:37;99488.84;;;2.30;58.18
13869;BME280;7004;48.206;16.402;2023-03-12T02:34:05;99492.63;;;2.22;57.69
13869;BME280;7004;48.206;16.402;2023-03-12T02:36:31;99490.13;;;2.18;58.00
13869;BME280;7004;48.206;16.402;2023-03-12T02:38:57;99498.94;;;2.14;58.18
13869;BME280;7004;48.206;16.402;2023-03-12T02:46:46;99505.75;;;2.18;58.11
13869;BME280;7004;48.206;16.402;2023-03-12T02:49:15;99510.28;;;2.38;56.79
13869;BME280;7004;48.206;16.402;2023-03-12T02:51:42;99509.72;;;2.04;57.56
13869;BME280;7004;48.206;16.402;2023-03-12T02:54:12;99513.22;;;2.03;58.26
13869;BME280;7004;48.206;16.402;2023-03-12T02:56:40;99519.75;;;2.16;58.12
13869;BME280;7004;48.206;16.402;2023-03-12T02:59:09;99517.66;;;2.26;57.42
13869;BME280;7004;48.206;16.402;2023-03-12T03:01:36;99520.28;;;2.26;57.65
13869;BME280;7004;48.206;16.402;2023-03-12T03:04:04;99511.88;;;2.44;57.22
13869;BME280;7004;48.206;16.402;2023-03-12T03:06:31;99520.03;;;2.07;57.71
13869;BME280;7004;48.206;16.402;2023-03-12T03:08:58;99518.47;;;2.28;57.23
13869;BME280;7004;48.206;16.402;2023-03-12T03:11:24;99525.94;;;2.12;58.03
13869;BME280;7004;48.206;16.402;2023-03-12T03:13:51;99524.00;;;2.18;57.36
13869;BME280;7004;48.206;16.402;2023-03-12T03:16:19;99525.56;;;1.98;58.03
13869;BME280;7004;48.206;16.402;2023-03-12T03:18:46;99523.41;;;1.54;59.00
13869;BME280;7004;48.206;16.402;2023-03-12T03:21:15;99530.47;;;1.79;58.65
13869;BME280;7004;48.206;16.402;2023-03-12T03:23:44;99536.06;;;1.94;58.28
13869;BME280;7004;48.206;16.402;2023-03-12T03:26:11;99534.16;;;2.00;58.32
13869;BME280;7004;48.206;16.402;2023-03-12T03:28:38;99536.13;;;1.93;58.82
13869;BME280;7004;48.206;16.402;2023-03-12T03:31:05;99538.28;;;2.07;58.12
13869;BME280;7004;48.206;16.402;2023-03-12T03:33:34;99542.88;;;1.99;58.46
13869;BME280;7004;48.206;16.402;2023-03-12T03:36:02;99545.22;;;2.08;58.36
13869;BME280;7004;48.206;16.402;2023-03-12T03:38:30;99544.66;;;1.98;59.07
13869;BME280;7004;48.206;16.402;2023-03-12T03:40:57;99551.16;;;2.13;58.16
13869;BME280;7004;48.206;16.402;2023-03-12T03:43:23;99553.03;;;2.08;58.19
13869;BME280;7004;48.206;16.402;2023-03-12T03:45:59;99555.06;;;1.70;58.68
13869;BME280;7004;48.206;16.402;2023-03-12T03:48:25;99555.44;;;1.86;58.72
13869;BME280;7004;48.206;16.402;2023-03-12T03:50:52;99558.50;;;1.70;59.29
13869;BME280;7004;48.206;16.402;2023-03-12T03:53:18;99558.94;;;1.57;59.38
13869;BME280;7004;48.206;16.402;2023-03-12T03:55:46;99561.66;;;1.52;59.25
13869;BME280;7004;48.206;16.402;2023-03-12T03:58:13;99562.69;;;1.46;59.84
13869;BME280;7004;48.206;16.402;2023-03-12T04:00:39;99579.25;;;1.45;59.54
13869;BME280;7004;48.206;16.402;2023-03-12T04:03:09;99576.63;;;1.45;60.32
13869;BME280;7004;48.206;16.402;2023-03-12T04:05:36;99580.53;;;1.29;60.86
13869;BME280;7004;48.206;16.402;2023-03-12T04:08:02;99580.84;;;1.18;61.42
13869;BME280;7004;48.206;16.402;2023-03-12T04:10:29;99580.34;;;1.37;60.35
13869;BME280;7004;48.206;16.402;2023-03-12T04:12:57;99579.28;;;1.11;61.31
13869;BME280;7004;48.206;16.402;2023-03-12T04:15:23;99582.13;;;1.35;60.69
13869;BME280;7004;48.206;16.402;2023-03-12T04:17:49;99583.41;;;1.20;61.41
13869;BME280;7004;48.206;16.402;2023-03-12T04:20:15;99590.94;;;0.98;61.67
13869;BME280;7004;48.206;16.402;2023-03-12T04:22:42;99599.19;;;1.14;60.88
13869;BME280;7004;48.206;16.402;2023-03-12T04:25:08;99596.84;;;1.04;61.55
13869;BME280;7004;48.206;16.402;2023-03-12T04:27:34;99596.22;;;0.95;62.12
13869;BME280;7004;48.206;16.402;2023-03-12T04:30:01;99597.34;;;0.84;62.26
13869;BME280;7004;48.206;16.402;2023-03-12T04:32:27;99603.22;;;0.93;61.69
13869;BME280;7004;48.206;16.402;2023-03-12T04:34:53;99612.22;;;0.79;62.56
13869;BME280;7004;48.206;16.402;2023-03-12T04:37:20;99614.06;;;0.76;62.36
13869;BME280;7004;48.206;16.402;2023-03-12T04:39:46;99614.34;;;0.99;62.04
13869;BME280;7004;48.206;16.402;2023-03-12T04:42:13;99620.22;;;0.72;63.17
13869;BME280;7004;48.206;16.402;2023-03-12T04:44:39;99618.41;;;0.75;63.51
13869;BME280;7004;48.206;16.402;2023-03-12T04:47:06;99622.84;;;0.72;62.97
13869;BME280;7004;48.206;16.402;2023-03-12T04:49:32;99627.56;;;0.56;64.36
13869;BME280;7004;48.206;16.402;2023-03-12T04:51:58;99626.91;;;0.46;64.72
13869;BME280;7004;48.206;16.402;2023-03-12T04:54:24;99623.38;;;0.49;64.12
13869;BME280;7004;48.206;16.402;2023-03-12T04:56:50;99624.03;;;0.58;64.03
13869;BME280;7004;48.206;16.402;2023-03-12T04:59:16;99626.41;;;0.68;63.71
13869;BME280;7004;48.206;16.402;2023-03-12T05:01:43;99628.88;;;0.72;63.42
13869;BME280;7004;48.206;16.402;2023-03-12T05:04:09;99632.41;;;0.71;63.83
13869;BME280;7004;48.206;16.402;2023-03-12T05:06:35;99626.38;;;0.69;64.27
13869;BME280;7004;48.206;16.402;2023-03-12T05:09:02;99635.28;;;0.95;63.69
13869;BME280;7004;48.206;16.402;2023-03-12T05:11:28;99628.16;;;0.67;64.59
13869;BME280;7004;48.206;16.402;2023-03-12T05:13:55;99635.91;;;0.33;65.98
13869;BME280;7004;48.206;16.402;2023-03-12T05:16:21;99636.56;;;0.41;65.29
13869;BME280;7004;48.206;16.402;2023-03-12T05:18:47;99628.66;;;0.47;64.99
13869;BME280;7004;48.206;16.402;2023-03-12T05:21:17;99642.19;;;0.22;65.98
13869;BME280;7004;48.206;16.402;2023-03-12T05:23:45;99642.59;;;0.43;65.71
13869;BME280;7004;48.206;16.402;2023-03-12T05:26:20;99652.41;;;0.32;66.08
13869;BME280;7004;48.206;16.402;2023-03-12T05:28:47;99649.81;;;0.32;66.28
13869;BME280;7004;48.206;16.402;2023-03-12T05:31:14;99647.66;;;0.49;66.05
13869;BME280;7004;48.206;16.402;2023-03-12T05:33:41;99649.56;;;0.41;65.78
13869;BME280;7004;48.206;16.402;2023-03-12T05:36:07;99663.31;;;0.09;67.52
13869;BME280;7004;48.206;16.402;2023-03-12T05:38:34;99660.72;;;0.09;67.36
13869;BME280;7004;48.206;16.402;2023-03-12T05:41:02;99661.47;;;0.14;67.90
13869;BME280;7004;48.206;16.402;2023-03-12T05:43:29;99664.41;;;0.37;66.96
13869;BME280;7004;48.206;16.402;2023-03-12T05:46:01;99668.44;;;0.49;66.37
13869;BME280;7004;48.206;16.402;2023-03-12T05:48:29;99671.97;;;0.47;66.52
13869;BME280;7004;48.206;16.402;2023-03-12T05:50:56;99675.13;;;0.61;66.74
13869;BME280;7004;48.206;16.402;2023-03-12T05:53:23;99675.81;;;0.30;67.22
13869;BME280;7004;48.206;16.402;2023-03-12T05:55:49;99682.25;;;0.53;67.43
13869;BME280;7004;48.206;16.402;2023-03-12T05:58:15;99684.00;;;0.52;66.43
13869;BME280;7004;48.206;16.402;2023-03-12T06:00:42;99691.38;;;0.71;66.82
13869;BME280;7004;48.206;16.402;2023-03-12T06:03:09;99688.13;;;0.61;67.25
13869;BME280;7004;48.206;16.402;2023-03-12T06:05:36;99697.44;;;0.34;68.02
13869;BME280;7004;48.206;16.402;2023-03-12T06:08:04;99690.41;;;0.37;68.62
13869;BME280;7004;48.206;16.402;2023-03-12T06:10:30;99694.25;;;0.60;67.52
13869;BME280;7004;48.206;16.402;2023-03-12T06:12:57;99697.34;;;0.74;66.95
13869;BME280;7004;48.206;16.402;2023-03-12T06:15:24;99701.28;;;0.92;65.91
13869;BME280;7004;48.206;16.402;2023-03-12T06:17:50;99700.72;;;1.14;64.92
13869;BME280;7004;48.206;16.402;2023-03-12T06:20:16;99696.59;;;1.39;64.41
13869;BME280;7004;48.206;16.402;2023-03-12T06:22:42;99695.94;;;1.33;64.74
13869;BME280;7004;48.206;16.402;2023-03-12T06:25:09;99702.41;;;0.80;67.61
13869;BME280;7004;48.206;16.402;2023-03-12T06:27:35;99700.19;;;1.01;67.72
13869;BME280;7004;48.206;16.402;2023-03-12T06:30:03;99703.03;;;1.59;64.26
13869;BME280;7004;48.206;16.402;2023-03-12T06:32:29;99705.88;;;1.82;63.38
13869;BME280;7004;48.206;16.402;2023-03-12T06:34:56;99701.94;;;1.97;62.76
13869;BME280;7004;48.206;16.402;2023-03-12T06:37:22;99702.56;;;1.75;64.69
13869;BME280;7004;48.206;16.402;2023-03-12T06:39:48;99704.13;;;1.83;64.67
13869;BME280;7004;48.206;16.402;2023-03-12T06:42:14;99711.22;;;1.78;66.19
13869;BME280;7004;48.206;16.402;2023-03-12T06:44:42;99713.38;;;1.93;64.28
13869;BME280;7004;48.206;16.402;2023-03-12T06:47:08;99714.00;;;1.71;67.46
13869;BME280;7004;48.206;16.402;2023-03-12T06:49:34;99723.84;;;1.91;66.40
13869;BME280;7004;48.206;16.402;2023-03-12T06:52:01;99712.91;;;2.39;59.89
13869;BME280;7004;48.206;16.402;2023-03-12T06:54:28;99721.59;;;2.38;60.48
13869;BME280;7004;48.206;16.402;2023-03-12T06:56:54;99720.28;;;2.53;58.87
13869;BME280;7004;48.206;16.402;2023-03-12T06:59:20;99723.81;;;2.80;57.13
13869;BME280;7004;48.206;16.402;2023-03-12T07:01:47;99721.53;;;3.24;56.80
13869;BME280;7004;48.206;16.402;2023-03-12T07:04:14;99726.44;;;3.59;54.68
13869;BME280;7004;48.206;16.402;2023-03-12T07:06:40;99726.16;;;4.15;52.93
13869;BME280;7004;48.206;16.402;2023-03-12T07:09:06;99719.06;;;4.86;50.11
13869;BME280;7004;48.206;16.402;2023-03-12T07:11:33;99712.28;;;5.02;48.16
13869;BME280;7004;48.206;16.402;2023-03-12T07:14:00;99699.56;;;5.56;47.02
13869;BME280;7004;48.206;16.402;2023-03-12T07:16:27;99709.91;;;5.80;46.49
13869;BME280;7004;48.206;16.402;2023-03-12T07:18:53;99708.78;;;5.44;45.63
13869;BME280;7004;48.206;16.402;2023-03-12T07:21:19;99715.84;;;5.83;44.84
13869;BME280;7004;48.206;16.402;2023-03-12T07:23:50;99709.72;;;6.24;43.96
13869;BME280;7004;48.206;16.402;2023-03-12T07:26:16;99708.94;;;7.13;41.95
13869;BME280;7004;48.206;16.402;2023-03-12T07:28:43;99711.41;;;5.65;45.28
13869;BME280;7004;48.206;16.402;2023-03-12T07:31:10;99709.19;;;7.09;42.08
13869;BME280;7004;48.206;16.402;2023-03-12T07:33:37;99711.69;;;7.97;40.77
13869;BME280;7004;48.206;16.402;2023-03-12T07:36:04;99719.84;;;8.08;40.82
13869;BME280;7004;48.206;16.402;2023-03-12T07:38:30;99720.19;;;8.02;40.84
13869;BME280;7004;48.206;16.402;2023-03-12T07:40:57;99717.66;;;8.50;39.94
13869;BME280;7004;48.206;16.402;2023-03-12T07:43:24;99713.44;;;7.11;41.79
13869;BME280;7004;48.206;16.402;2023-03-12T07:45:51;99724.31;;;7.91;40.58
13869;BME280;7004;48.206;16.402;2023-03-12T07:48:17;99727.13;;;8.03;39.76
13869;BME280;7004;48.206;16.402;2023-03-12T07:50:45;99723.72;;;8.01;39.34
13869;BME280;7004;48.206;16.402;2023-03-12T07:53:11;99718.75;;;8.46;38.83
13869;BME280;7004;48.206;16.402;2023-03-12T07:55:38;99722.72;;;7.36;39.05
13869;BME280;7004;48.206;16.402;2023-03-12T07:58:05;99727.72;;;9.05;36.42
13869;BME280;7004;48.206;16.402;2023-03-12T08:00:31;99733.16;;;8.23;38.38
13869;BME280;7004;48.206;16.402;2023-03-12T08:02:57;99734.41;;;8.31;38.15
13869;BME280;7004;48.206;16.402;2023-03-12T08:05:24;99720.09;;;9.31;37.05
13869;BME280;7004;48.206;16.402;2023-03-12T08:07:51;99725.88;;;9.37;36.60
13869;BME280;7004;48.206;16.402;2023-03-12T08:10:18;99725.53;;;9.13;36.75
13869;BME280;7004;48.206;16.402;2023-03-12T08:12:44;99724.06;;;9.68;36.77
13869;BME280;7004;48.206;16.402;2023-03-12T08:15:10;99719.75;;;8.91;36.02
13869;BME280;7004;48.206;16.402;2023-03-12T08:17:38;99721.25;;;10.14;35.96
13869;BME280;7004;48.206;16.402;2023-03-12T08:20:05;99724.38;;;10.21;36.41
13869;BME280;7004;48.206;16.402;2023-03-12T08:22:39;99718.72;;;9.84;34.70
13869;BME280;7004;48.206;16.402;2023-03-12T08:25:07;99721.25;;;10.71;35.06
13869;BME280;7004;48.206;16.402;2023-03-12T08:27:35;99716.41;;;10.78;33.77
13869;BME280;7004;48.206;16.402;2023-03-12T08:30:03;99726.75;;;8.60;36.11
13869;BME280;7004;48.206;16.402;2023-03-12T08:32:29;99720.31;;;9.12;37.12
13869;BME280;7004;48.206;16.402;2023-03-12T08:34:55;99710.19;;;10.79;34.73
13869;BME280;7004;48.206;16.402;2023-03-12T08:37:22;99719.38;;;10.16;34.14
13869;BME280;7004;48.206;16.402;2023-03-12T08:39:48;99713.59;;;10.94;32.22
13869;BME280;7004;48.206;16.402;2023-03-12T08:42:14;99719.66;;;12.14;31.51
13869;BME280;7004;48.206;16.402;2023-03-12T08:44:41;99723.34;;;8.74;36.23
13869;BME280;7004;48.206;16.402;2023-03-12T08:47:07;99719.47;;;10.00;33.83
13869;BME280;7004;48.206;16.402;2023-03-12T08:49:33;99711.75;;;11.62;32.83
13869;BME280;7004;48.206;16.402;2023-03-12T08:51:59;99712.09;;;11.17;32.94
13869;BME280;7004;48.206;16.402;2023-03-12T08:54:25;99713.69;;;10.65;33.81
13869;BME280;7004;48.206;16.402;2023-03-12T08:56:53;99712.69;;;11.35;32.00
13869;BME280;7004;48.206;16.402;2023-03-12T08:59:20;99711.75;;;12.88;30.71
13869;BME280;7004;48.206;16.402;2023-03-12T09:01:47;99722.34;;;11.62;32.53
13869;BME280;7004;48.206;16.402;2023-03-12T09:04:14;99728.06;;;9.90;33.03
13869;BME280;7004;48.206;16.402;2023-03-12T09:06:41;99725.81;;;11.89;31.32
13869;BME280;7004;48.206;16.402;2023-03-12T09:09:08;99730.28;;;11.89;30.68
13869;BME280;7004;48.206;16.402;2023-03-12T09:11:36;99733.28;;;12.46;29.65
13869;BME280;7004;48.206;16.402;2023-03-12T09:14:04;99735.88;;;11.31;30.68
13869;BME280;7004;48.206;16.402;2023-03-12T09:16:31;99737.22;;;10.97;32.33
13869;BME280;7004;48.206;16.402;2023-03-12T09:18:57;99730.81;;;10.87;31.58
13869;BME280;7004;48.206;16.402;2023-03-12T09:21:23;99728.16;;;10.87;30.76
13869;BME280;7004;48.206;16.402;2023-03-12T09:23:49;99735.31;;;10.58;31.14
13869;BME280;7004;48.206;16.402;2023-03-12T09:26:15;99721.84;;;12.46;28.83
13869;BME280;7004;48.206;16.402;2023-03-12T09:28:41;99732.84;;;9.83;31.69
13869;BME280;7004;48.206;16.402;2023-03-12T09:31:10;99720.91;;;11.70;30.11
13869;BME280;7004;48.206;16.402;2023-03-12T09:33:36;99718.50;;;10.73;31.70
13869;BME280;7004;48.206;16.402;2023-03-12T09:36:03;99715.44;;;12.61;28.68
13869;BME280;7004;48.206;16.402;2023-03-12T09:38:30;99725.69;;;12.16;29.04
13869;BME280;7004;48.206;16.402;2023-03-12T09:40:57;99723.44;;;12.49;28.23
13869;BME280;7004;48.206;16.402;2023-03-12T09:43:39;99732.88;;;10.96;29.95
13869;BME280;7004;48.206;16.402;2023-03-12T09:46:23;99733.25;;;9.91;32.16
13869;BME280;7004;48.206;16.402;2023-03-12T09:48:53;99725.50;;;11.41;30.04
13869;BME280;7004;48.206;16.402;2023-03-12T09:51:44;99720.25;;;12.43;29.42
13869;BME280;7004;48.206;16.402;2023-03-12T09:54:37;99718.19;;;11.05;30.00
13869;BME280;7004;48.206;16.402;2023-03-12T09:57:13;99704.75;;;13.11;26.54
13869;BME280;7004;48.206;16.402;2023-03-12T09:59:42;99714.31;;;10.83;29.48
13869;BME280;7004;48.206;16.402;2023-03-12T10:02:52;99715.44;;;12.24;27.57
13869;BME280;7004;48.206;16.402;2023-03-12T10:05:55;99712.97;;;12.21;27.66
13869;BME280;7004;48.206;16.402;2023-03-12T10:08:49;99707.53;;;14.36;25.53
13869;BME280;7004;48.206;16.402;2023-03-12T10:16:53;99703.69;;;13.25;26.86
13869;BME280;7004;48.206;16.402;2023-03-12T10:19:55;99702.69;;;13.85;25.97
13869;BME280;7004;48.206;16.402;2023-03-12T10:22:59;99710.13;;;11.99;27.12
13869;BME280;7004;48.206;16.402;2023-03-12T10:28:17;99712.72;;;12.37;28.21
13869;BME280;7004;48.206;16.402;2023-03-12T10:30:53;99695.09;;;13.10;27.15
13869;BME280;7004;48.206;16.402;2023-03-12T10:33:28;99692.59;;;12.72;27.24
13869;BME280;7004;48.206;16.402;2023-03-12T10:35:58;99699.09;;;12.92;26.57
13869;BME280;7004;48.206;16.402;2023-03-12T10:38:28;99698.84;;;11.82;28.00
13869;BME280;7004;48.206;16.402;2023-03-12T10:40:55;99692.53;;;11.20;28.92
13869;BME280;7004;48.206;16.402;2023-03-12T10:43:21;99690.47;;;11.37;28.56
13869;BME280;7004;48.206;16.402;2023-03-12T10:48:39;99682.78;;;12.85;27.50
13869;BME280;7004;48.206;16.402;2023-03-12T10:51:09;99682.53;;;11.50;28.30
13869;BME280;7004;48.206;16.402;2023-03-12T10:53:39;99675.06;;;12.45;29.14
13869;BME280;7004;48.206;16.402;2023-03-12T10:56:15;99670.09;;;13.94;26.88
13869;BME280;7004;48.206;16.402;2023-03-12T10:58:45;99673.56;;;13.26;26.68
13869;BME280;7004;48.206;16.402;2023-03-12T11:01:26;99674.00;;;11.20;28.72
13869;BME280;7004;48.206;16.402;2023-03-12T11:04:13;99676.72;;;12.35;27.70
13869;BME280;7004;48.206;16.402;2023-03-12T11:06:40;99662.13;;;13.01;27.18
13869;BME280;7004;48.206;16.402;2023-03-12T11:09:18;99667.78;;;12.36;27.80
13869;BME280;7004;48.206;16.402;2023-03-12T11:11:46;99647.94;;;14.39;26.06
13869;BME280;7004;48.206;16.402;2023-03-12T11:14:23;99658.72;;;13.23;27.34
13869;BME280;7004;48.206;16.402;2023-03-12T11:16:51;99658.88;;;12.37;28.66
13869;BME280;7004;48.206;16.402;2023-03-12T11:19:33;99661.44;;;12.86;28.09
13869;BME280;7004;48.206;16.402;2023-03-12T11:22:08;99643.75;;;12.87;27.09
13869;BME280;7004;48.206;16.402;2023-03-12T11:24:55;99633.50;;;14.09;25.80
13869;BME280;7004;48.206;16.402;2023-03-12T11:27:43;99633.03;;;14.04;26.12
13869;BME280;7004;48.206;16.402;2023-03-12T11:30:15;99635.22;;;13.30;26.80
13869;BME280;7004;48.206;16.402;2023-03-12T11:32:47;99630.94;;;14.53;28.54
13869;BME280;7004;48.206;16.402;2023-03-12T11:38:20;99615.56;;;12.49;28.30
13869;BME280;7004;48.206;16.402;2023-03-12T11:47:23;99592.16;;;12.43;29.03
13869;BME280;7004;48.206;16.402;2023-03-12T11:53:01;99585.06;;;13.49;29.49
13869;BME280;7004;48.206;16.402;2023-03-12T12:07:56;99576.84;;;12.95;27.73
13869;BME280;7004;48.206;16.402;2023-03-12T12:16:47;99569.38;;;13.58;28.40
13869;BME280;7004;48.206;16.402;2023-03-12T12:20:30;99567.56;;;12.17;28.61
13869;BME280;7004;48.206;16.402;2023-03-12T12:28:59;99561.28;;;13.48;27.56
13869;BME280;7004;48.206;16.402;2023-03-12T12:31:42;99561.84;;;12.10;28.98
13869;BME280;7004;48.206;16.402;2023-03-12T12:37:30;99550.66;;;13.59;27.87
13869;BME280;7004;48.206;16.402;2023-03-12T12:40:29;99550.81;;;13.00;28.04
13869;BME280;7004;48.206;16.402;2023-03-12T12:43:31;99548.84;;;12.90;28.33
13869;BME280;7004;48.206;16.402;2023-03-12T12:49:12;99553.19;;;11.95;28.75
13869;BME280;7004;48.206;16.402;2023-03-12T12:51:45;99548.44;;;11.88;29.41
13869;BME280;7004;48.206;16.402;2023-03-12T13:02:26;99539.34;;;11.92;28.99
13869;BME280;7004;48.206;16.402;2023-03-12T13:04:59;99528.75;;;11.79;30.05
13869;BME280;7004;48.206;16.402;2023-03-12T13:09:57;99533.53;;;11.87;29.72
13869;BME280;7004;48.206;16.402;2023-03-12T13:12:45;99533.16;;;10.50;30.85
13869;BME280;7004;48.206;16.402;2023-03-12T13:20:23;99528.50;;;10.27;30.72
13869;BME280;7004;48.206;16.402;2023-03-12T13:26:00;99526.56;;;10.83;30.62
13869;BME280;7004;48.206;16.402;2023-03-12T13:28:36;99531.28;;;10.65;30.14
13869;BME280;7004;48.206;16.402;2023-03-12T13:34:25;99541.91;;;10.24;31.09
13869;BME280;7004;48.206;16.402;2023-03-12T13:36:58;99534.91;;;10.37;30.22
13869;BME280;7004;48.206;16.402;2023-03-12T13:39:32;99544.16;;;10.03;31.10
13869;BME280;7004;48.206;16.402;2023-03-12T13:42:01;99541.69;;;10.81;31.23
13869;BME280;7004;48.206;16.402;2023-03-12T13:44:47;99547.94;;;10.40;32.22
13869;BME280;7004;48.206;16.402;2023-03-12T13:47:33;99543.84;;;10.49;31.19
13869;BME280;7004;48.206;16.402;2023-03-12T13:50:13;99549.88;;;10.51;31.66
13869;BME280;7004;48.206;16.402;2023-03-12T13:53:02;99557.31;;;9.61;32.18
13869;BME280;7004;48.206;16.402;2023-03-12T13:55:32;99550.88;;;10.36;31.18
13869;BME280;7004;48.206;16.402;2023-03-12T13:58:09;99554.78;;;10.70;31.53
13869;BME280;7004;48.206;16.402;2023-03-12T14:03:51;99570.03;;;9.83;32.65
13869;BME280;7004;48.206;16.402;2023-03-12T14:06:21;99572.56;;;9.99;32.29
13869;BME280;7004;48.206;16.402;2023-03-12T14:15:15;99573.31;;;9.87;33.15
13869;BME280;7004;48.206;16.402;2023-03-12T14:17:59;99576.34;;;9.81;32.11
13869;BME280;7004;48.206;16.402;2023-03-12T14:20:29;99574.59;;;10.09;32.63
13869;BME280;7004;48.206;16.402;2023-03-12T14:23:08;99573.06;;;9.63;33.31
13869;BME280;7004;48.206;16.402;2023-03-12T14:25:47;99578.72;;;9.57;33.43
13869;BME280;7004;48.206;16.402;2023-03-12T14:28:22;99578.53;;;9.46;33.42
13869;BME280;7004;48.206;16.402;2023-03-12T14:31:09;99578.69;;;9.14;34.17
13869;BME280;7004;48.206;16.402;2023-03-12T14:36:42;99578.22;;;9.22;33.63
13869;BME280;7004;48.206;16.402;2023-03-12T14:39:34;99584.56;;;9.48;33.63
13869;BME280;7004;48.206;16.402;2023-03-12T14:42:06;99578.03;;;9.39;33.68
13869;BME280;7004;48.206;16.402;2023-03-12T14:44:37;99587.19;;;9.62;33.63
13869;BME280;7004;48.206;16.402;2023-03-12T14:47:09;99585.09;;;9.38;33.91
13869;BME280;7004;48.206;16.402;2023-03-12T14:49:45;99577.69;;;9.45;33.63
13869;BME280;7004;48.206;16.402;2023-03-12T14:52:14;99579.78;;;9.10;34.09
13869;BME280;7004;48.206;16.402;2023-03-12T14:54:57;99575.47;;;9.23;34.33
13869;BME280;7004;48.206;16.402;2023-03-12T14:57:25;99565.00;;;9.07;34.33
13869;BME280;7004;48.206;16.402;2023-03-12T14:59:56;99566.31;;;9.00;34.70
13869;BME280;7004;48.206;16.402;2023-03-12T15:02:25;99567.44;;;8.66;35.29